| Date | Time | Temp. (oF) | Dew Point (oF) | Rel. Hum. (%) | Press. (in.) | Wind Dir. | Wind Speed (mph) | Hourly Rainfall (in.) |
|
|---|---|---|---|---|---|---|---|---|---|
| 1 | 06/09 | 00:00 | 52 | 39 | 62 | 29.84 | SW | 2 | 0.00 |
| 2 | 06/08 | 23:00 | 56 | 38 | 52 | 29.83 | SSW | 0 | 0.00 |
| 3 | 06/08 | 22:00 | 58 | 37 | 47 | 29.82 | W | 4 | 0.00 |
| 4 | 06/08 | 21:00 | 59 | 38 | 46 | 29.80 | W | 8 | 0.00 |
| 5 | 06/08 | 20:00 | 61 | 38 | 43 | 29.77 | WSW | 11 | 0.00 |
| 6 | 06/08 | 19:00 | 63 | 37 | 39 | 29.75 | W | 18 | 0.00 |
| 7 | 06/08 | 18:00 | 62 | 38 | 42 | 29.74 | WSW | 20 | 0.00 |
| 8 | 06/08 | 17:00 | 63 | 40 | 44 | 29.73 | WSW | 9 | 0.00 |
| 9 | 06/08 | 16:00 | 64 | 40 | 43 | 29.71 | N | 10 | 0.00 |
| 10 | 06/08 | 15:00 | 63 | 45 | 52 | 29.69 | WSW | 2 | 0.00 |
| 11 | 06/08 | 14:00 | 56 | 50 | 82 | 29.70 | W | 7 | 0.05 |
| 12 | 06/08 | 13:00 | 63 | 45 | 52 | 29.67 | SW | 11 | 0.00 |
| 13 | 06/08 | 12:00 | 60 | 51 | 73 | 29.65 | SW | 5 | 0.03 |
| 14 | 06/08 | 11:00 | 54 | 48 | 82 | 29.63 | WSW | 2 | 0.17 |
| 15 | 06/08 | 10:00 | 65 | 51 | 62 | 29.56 | WSW | 6 | 0.00 |
| 16 | 06/08 | 09:00 | 64 | 51 | 63 | 29.59 | SSW | 6 | 0.00 |
| 17 | 06/08 | 08:00 | 60 | 50 | 70 | 29.62 | SSW | 3 | 0.00 |
| 18 | 06/08 | 07:00 | 57 | 48 | 73 | 29.63 | SSW | 0 | 0.00 |
| 19 | 06/08 | 06:00 | 56 | 47 | 72 | 29.62 | WSW | 0 | 0.00 |
| 20 | 06/08 | 05:00 | 57 | 47 | 70 | 29.63 | SW | 2 | 0.00 |
| 21 | 06/08 | 04:00 | 58 | 47 | 68 | 29.62 | SW | 2 | 0.00 |
| 22 | 06/08 | 03:00 | 58 | 46 | 65 | 29.63 | WSW | 3 | 0.00 |
| 23 | 06/08 | 02:00 | 60 | 46 | 62 | 29.62 | SW | 0 | 0.00 |
| 24 | 06/08 | 01:00 | 60 | 46 | 62 | 29.61 | W | 0 | 0.00 |